createdAt,value
2023-03-30T00:00:58.224Z,70.67
2023-03-30T00:03:27.486Z,59.33
2023-03-30T00:05:56.747Z,59.10
2023-03-30T00:08:28.828Z,59.53
2023-03-30T00:11:03.975Z,67.03
2023-03-30T00:13:32.275Z,59.03
2023-03-30T00:16:00.114Z,57.80
2023-03-30T00:18:27.601Z,59.63
2023-03-30T00:20:54.820Z,57.37
2023-03-30T00:23:22.448Z,59.37
2023-03-30T00:25:49.672Z,68.90
2023-03-30T00:28:16.766Z,66.17
2023-03-30T00:30:43.765Z,68.43
2023-03-30T00:33:11.083Z,60.33
2023-03-30T00:35:38.194Z,66.70
2023-03-30T00:38:05.894Z,73.63
2023-03-30T00:40:36.610Z,67.43
2023-03-30T00:43:07.474Z,59.30
2023-03-30T00:45:37.027Z,59.07
2023-03-30T00:48:19.398Z,58.90
2023-03-30T00:51:13.990Z,56.60
2023-03-30T00:53:48.215Z,59.33
2023-03-30T00:56:20.213Z,56.63
2023-03-30T00:58:47.321Z,58.40
2023-03-30T01:01:18.838Z,56.33
2023-03-30T01:03:48.294Z,57.00
2023-03-30T01:06:24.376Z,56.63
2023-03-30T01:08:53.394Z,59.03
2023-03-30T01:11:21.609Z,58.07
2023-03-30T01:13:55.607Z,58.73
2023-03-30T01:17:02.066Z,58.17
2023-03-30T01:19:48.240Z,59.73
2023-03-30T01:22:24.308Z,57.50
2023-03-30T01:25:10.290Z,58.03
2023-03-30T01:28:11.789Z,56.63
2023-03-30T01:31:25.528Z,57.00
2023-03-30T01:34:33.687Z,58.53
2023-03-30T01:37:42.351Z,63.63
2023-03-30T01:40:13.465Z,64.93
2023-03-30T01:42:53.538Z,61.10
2023-03-30T01:45:36.014Z,58.53
2023-03-30T01:48:14.202Z,58.50
2023-03-30T01:50:56.390Z,58.27
2023-03-30T01:53:34.498Z,58.73
2023-03-30T01:56:14.934Z,58.53
2023-03-30T01:58:48.520Z,56.47
2023-03-30T02:01:17.852Z,56.83
2023-03-30T02:03:52.394Z,57.13
2023-03-30T02:06:38.781Z,56.50
2023-03-30T02:09:11.158Z,56.13
2023-03-30T02:11:43.232Z,56.13
2023-03-30T02:14:13.143Z,56.33
2023-03-30T02:16:47.382Z,56.70
2023-03-30T02:19:15.667Z,56.23
2023-03-30T02:21:43.811Z,56.80
2023-03-30T02:24:25.917Z,56.50
2023-03-30T02:26:55.091Z,56.43
2023-03-30T02:29:22.933Z,56.80
2023-03-30T02:31:54.320Z,57.40
2023-03-30T02:34:30.337Z,56.93
2023-03-30T02:37:30.207Z,55.30
2023-03-30T02:40:32.164Z,56.27
2023-03-30T02:43:56.447Z,59.60
2023-03-30T02:47:02.289Z,58.67
2023-03-30T02:49:43.739Z,60.10
2023-03-30T02:53:02.995Z,61.77
2023-03-30T02:56:00.606Z,60.13
2023-03-30T02:58:54.091Z,58.57
2023-03-30T03:02:04.512Z,62.67
2023-03-30T03:04:34.443Z,92.03
2023-03-30T03:07:21.040Z,81.33
2023-03-30T03:09:48.266Z,87.00
2023-03-30T03:12:15.401Z,80.40
2023-03-30T03:14:43.210Z,88.17
2023-03-30T03:17:13.611Z,74.20
2023-03-30T03:19:44.997Z,75.47
2023-03-30T03:22:13.129Z,60.27
2023-03-30T03:24:41.882Z,67.63
2023-03-30T03:27:21.223Z,61.47
2023-03-30T03:30:05.667Z,58.53
2023-03-30T03:32:39.438Z,58.60
2023-03-30T03:35:07.334Z,58.33
2023-03-30T03:37:35.136Z,59.17
2023-03-30T03:40:05.394Z,58.60
2023-03-30T03:42:33.012Z,58.23
2023-03-30T03:45:08.850Z,57.10
2023-03-30T03:47:38.562Z,60.53
2023-03-30T03:50:09.716Z,63.93
2023-03-30T03:52:37.479Z,57.53
2023-03-30T03:55:05.653Z,57.73
2023-03-30T03:57:32.853Z,57.60
2023-03-30T04:00:00.010Z,58.17
2023-03-30T04:02:27.887Z,65.50
2023-03-30T04:04:55.688Z,66.67
2023-03-30T04:07:25.519Z,66.13
2023-03-30T04:09:52.643Z,59.60
2023-03-30T04:12:42.750Z,58.27
2023-03-30T04:15:29.984Z,57.37
2023-03-30T04:18:09.700Z,56.07
2023-03-30T04:21:12.969Z,57.17
2023-03-30T04:23:49.122Z,56.63
2023-03-30T04:26:19.222Z,57.43
2023-03-30T04:29:06.751Z,58.23
2023-03-30T04:32:02.764Z,57.33
2023-03-30T04:35:06.621Z,57.27
2023-03-30T04:37:52.321Z,63.63
2023-03-30T04:40:36.811Z,58.90
2023-03-30T04:43:21.441Z,59.40
2023-03-30T04:46:02.044Z,60.33
2023-03-30T04:48:47.583Z,60.23
2023-03-30T04:51:40.917Z,59.17
2023-03-30T04:54:26.250Z,60.27
2023-03-30T04:56:56.264Z,58.80
2023-03-30T04:59:43.994Z,58.53
2023-03-30T05:02:26.336Z,57.33
2023-03-30T05:05:11.863Z,58.80
2023-03-30T05:07:59.597Z,57.73
2023-03-30T05:10:38.671Z,57.60
2023-03-30T05:13:29.108Z,57.47
2023-03-30T05:16:14.623Z,58.13
2023-03-30T05:19:04.387Z,58.77
2023-03-30T05:22:03.586Z,57.30
2023-03-30T05:24:52.125Z,58.20
2023-03-30T05:27:29.729Z,58.60
2023-03-30T05:30:15.689Z,57.87
2023-03-30T05:33:02.677Z,58.83
2023-03-30T05:35:57.348Z,58.33
2023-03-30T05:38:37.918Z,58.73
2023-03-30T05:41:23.202Z,58.77
2023-03-30T05:44:03.656Z,59.33
2023-03-30T05:46:51.025Z,58.73
2023-03-30T05:49:36.595Z,58.27
2023-03-30T05:52:19.029Z,57.47
2023-03-30T05:55:05.318Z,58.17
2023-03-30T05:57:52.576Z,58.60
2023-03-30T06:00:41.634Z,58.83
2023-03-30T06:03:18.441Z,58.50
2023-03-30T06:05:46.610Z,59.03
2023-03-30T06:08:13.680Z,58.27
2023-03-30T06:10:42.506Z,58.30
2023-03-30T06:13:11.932Z,60.33
2023-03-30T06:15:47.373Z,63.70
2023-03-30T06:18:19.532Z,60.73
2023-03-30T06:20:55.810Z,59.27
2023-03-30T06:23:24.035Z,60.30
2023-03-30T06:25:54.599Z,60.57
2023-03-30T06:28:27.614Z,60.10
2023-03-30T06:30:55.078Z,61.33
2023-03-30T06:33:25.952Z,60.77
2023-03-30T06:35:58.450Z,65.17
2023-03-30T06:38:25.671Z,66.07
2023-03-30T06:40:55.048Z,59.97
2023-03-30T06:43:26.011Z,60.80
2023-03-30T06:46:01.987Z,59.80
2023-03-30T06:48:29.065Z,59.90
2023-03-30T06:51:14.571Z,60.50
2023-03-30T06:53:42.726Z,62.80
2023-03-30T06:56:10.022Z,59.73
2023-03-30T06:58:45.720Z,59.73
2023-03-30T07:01:16.043Z,59.77
2023-03-30T07:04:03.460Z,59.67
2023-03-30T07:07:06.030Z,58.57
2023-03-30T07:09:33.737Z,59.60
2023-03-30T07:12:00.978Z,60.37
2023-03-30T07:14:28.148Z,59.97
2023-03-30T07:16:55.283Z,62.27
2023-03-30T07:19:22.334Z,61.10
2023-03-30T07:21:49.333Z,67.50
2023-03-30T07:24:18.754Z,61.67
2023-03-30T07:26:46.324Z,61.23
2023-03-30T07:29:15.406Z,60.40
2023-03-30T07:31:45.450Z,59.13
2023-03-30T07:34:17.291Z,59.63
2023-03-30T07:36:50.466Z,59.67
2023-03-30T07:39:18.534Z,59.07
2023-03-30T07:41:46.640Z,59.83
2023-03-30T07:44:14.182Z,59.73
2023-03-30T07:46:41.357Z,60.87
2023-03-30T07:49:13.959Z,61.70
2023-03-30T07:51:41.229Z,61.40
2023-03-30T07:54:28.477Z,58.83
2023-03-30T07:57:04.604Z,61.47
2023-03-30T07:59:33.074Z,60.33
2023-03-30T08:02:13.404Z,69.77
2023-03-30T08:04:50.545Z,58.60
2023-03-30T08:07:24.253Z,61.03
2023-03-30T08:09:56.091Z,60.13
2023-03-30T08:12:23.054Z,59.83
2023-03-30T08:14:49.991Z,65.30
2023-03-30T08:17:16.979Z,62.30
2023-03-30T08:19:43.933Z,60.50
2023-03-30T08:22:12.018Z,60.03
2023-03-30T08:24:38.954Z,70.73
2023-03-30T08:27:06.011Z,64.40
2023-03-30T08:29:33.698Z,68.70
2023-03-30T08:32:00.750Z,65.27
2023-03-30T08:34:27.768Z,60.87
2023-03-30T08:36:54.867Z,60.87
2023-03-30T08:39:21.978Z,67.07
2023-03-30T08:42:26.558Z,62.33
2023-03-30T08:44:57.015Z,63.37
2023-03-30T08:47:34.036Z,62.17
2023-03-30T08:50:35.079Z,63.40
2023-03-30T08:53:05.006Z,61.80
2023-03-30T08:55:50.628Z,65.80
2023-03-30T08:58:36.147Z,60.77
2023-03-30T09:01:18.791Z,60.70
2023-03-30T09:04:07.586Z,60.87
2023-03-30T09:06:50.992Z,60.47
2023-03-30T09:09:21.732Z,60.80
2023-03-30T09:11:57.028Z,63.63
2023-03-30T09:14:41.711Z,61.73
2023-03-30T09:17:39.847Z,62.90
2023-03-30T09:20:13.755Z,63.20
2023-03-30T09:22:43.657Z,63.80
2023-03-30T09:25:18.255Z,63.37
2023-03-30T09:27:47.972Z,62.67
2023-03-30T09:30:26.531Z,61.10
2023-03-30T09:33:13.811Z,60.63
2023-03-30T09:35:44.808Z,61.23
2023-03-30T09:38:13.454Z,61.70
2023-03-30T09:41:11.410Z,60.90
2023-03-30T09:43:46.124Z,60.67
2023-03-30T09:46:15.379Z,61.50
2023-03-30T09:48:48.359Z,61.13
2023-03-30T09:51:18.305Z,60.03
2023-03-30T09:53:48.124Z,60.63
2023-03-30T09:56:35.325Z,60.37
2023-03-30T09:59:20.296Z,61.07
2023-03-30T10:01:47.312Z,60.77
2023-03-30T10:04:16.432Z,61.33
2023-03-30T10:06:49.738Z,60.87
2023-03-30T10:09:21.791Z,61.27
2023-03-30T10:11:51.462Z,61.23
2023-03-30T10:14:37.967Z,61.37
2023-03-30T10:17:05.891Z,60.13
2023-03-30T10:19:38.958Z,61.57
2023-03-30T10:22:18.158Z,65.57
2023-03-30T10:24:57.017Z,61.77
2023-03-30T10:27:34.490Z,62.47
2023-03-30T10:30:11.359Z,61.50
2023-03-30T10:32:38.822Z,60.70
2023-03-30T10:35:10.509Z,61.30
2023-03-30T10:37:45.023Z,61.83
2023-03-30T10:40:18.023Z,61.67
2023-03-30T10:42:47.224Z,60.47
2023-03-30T10:45:21.217Z,61.00
2023-03-30T10:48:12.540Z,61.07
2023-03-30T10:51:08.752Z,62.20
2023-03-30T10:54:00.327Z,9.45
2023-03-30T10:56:39.131Z,9.98
2023-03-30T10:59:24.156Z,9.02
2023-03-30T11:02:31.380Z,10.13
2023-03-30T11:05:15.833Z,8.85
2023-03-30T11:08:02.469Z,9.43
2023-03-30T11:10:36.900Z,8.85
2023-03-30T11:13:19.162Z,9.65
2023-03-30T11:16:10.219Z,10.35
2023-03-30T11:19:10.643Z,10.00
2023-03-30T11:21:51.733Z,9.25
2023-03-30T11:24:22.435Z,9.85
2023-03-30T11:27:11.028Z,9.00
2023-03-30T11:30:01.073Z,10.07
2023-03-30T11:32:36.148Z,9.00
2023-03-30T11:35:21.157Z,9.82
2023-03-30T11:38:19.857Z,10.18
2023-03-30T11:40:57.248Z,9.77
2023-03-30T11:43:30.898Z,9.32
2023-03-30T11:46:17.987Z,9.15
2023-03-30T11:49:28.416Z,9.13
2023-03-30T11:52:29.647Z,9.88
2023-03-30T11:55:24.979Z,9.98
2023-03-30T11:58:14.679Z,9.60
2023-03-30T12:00:55.091Z,9.85
2023-03-30T12:03:47.000Z,9.35
2023-03-30T12:06:38.748Z,9.40
2023-03-30T12:09:34.858Z,9.30
2023-03-30T12:12:18.434Z,9.90
2023-03-30T12:15:05.418Z,8.57
2023-03-30T12:17:37.829Z,8.70
2023-03-30T12:20:16.641Z,8.25
2023-03-30T12:23:03.209Z,7.45
2023-03-30T12:26:01.331Z,7.88
2023-03-30T12:31:18.274Z,8.40
2023-03-30T12:33:50.936Z,8.15
2023-03-30T12:36:40.840Z,8.70
2023-03-30T12:39:31.305Z,8.05
2023-03-30T12:42:09.454Z,8.13
2023-03-30T12:44:45.374Z,7.63
2023-03-30T12:47:40.253Z,8.55
2023-03-30T12:50:35.164Z,8.15
2023-03-30T12:54:01.406Z,8.13
2023-03-30T12:56:35.129Z,7.80
2023-03-30T12:59:39.716Z,7.22
2023-03-30T13:03:09.587Z,8.20
2023-03-30T13:05:43.350Z,7.38
2023-03-30T13:08:23.731Z,7.47
2023-03-30T13:10:50.878Z,6.88
2023-03-30T13:14:20.653Z,5.57
2023-03-30T13:16:50.759Z,5.95
2023-03-30T13:19:28.519Z,6.00
2023-03-30T13:21:58.449Z,5.60
2023-03-30T13:24:31.456Z,5.70
2023-03-30T13:27:17.043Z,5.63
2023-03-30T13:30:02.505Z,6.20
2023-03-30T13:32:57.750Z,5.15
2023-03-30T13:35:58.780Z,4.30
2023-03-30T13:39:29.574Z,4.78
2023-03-30T13:42:49.840Z,6.07
2023-03-30T13:45:40.228Z,4.80
2023-03-30T13:48:47.418Z,5.40
2023-03-30T13:51:19.916Z,4.28
2023-03-30T13:54:01.916Z,4.25
2023-03-30T13:56:35.281Z,4.78
2023-03-30T13:59:17.082Z,5.05
2023-03-30T14:01:51.095Z,4.30
2023-03-30T14:04:18.176Z,4.72
2023-03-30T14:06:49.785Z,6.47
2023-03-30T14:09:28.704Z,6.47
2023-03-30T14:12:04.749Z,4.63
2023-03-30T14:14:38.747Z,4.70
2023-03-30T14:17:24.432Z,4.68
2023-03-30T14:20:26.517Z,5.47
2023-03-30T14:22:55.664Z,5.45
2023-03-30T14:25:29.988Z,5.30
2023-03-30T14:28:02.517Z,5.75
2023-03-30T14:30:30.724Z,6.82
2023-03-30T14:33:09.289Z,5.93
2023-03-30T14:35:56.661Z,5.90
2023-03-30T14:38:26.235Z,6.10
2023-03-30T14:40:54.663Z,5.35
2023-03-30T14:43:25.718Z,4.82
2023-03-30T14:45:56.655Z,4.82
2023-03-30T14:48:37.469Z,4.85
2023-03-30T14:51:27.500Z,5.10
2023-03-30T14:53:55.556Z,4.90
2023-03-30T14:56:24.074Z,6.05
2023-03-30T14:58:52.420Z,5.07
2023-03-30T15:01:31.521Z,6.72
2023-03-30T15:04:04.780Z,8.88
2023-03-30T15:06:32.671Z,9.30
2023-03-30T15:09:09.867Z,11.43
2023-03-30T15:11:39.620Z,7.95
2023-03-30T15:14:09.817Z,6.28
2023-03-30T15:16:38.201Z,8.00
2023-03-30T15:19:32.957Z,7.30
2023-03-30T15:22:18.321Z,6.25
2023-03-30T15:24:45.487Z,7.35
2023-03-30T15:27:15.898Z,7.95
2023-03-30T15:29:44.871Z,5.70
2023-03-30T15:32:42.106Z,7.13
2023-03-30T15:35:27.706Z,6.20
2023-03-30T15:38:01.549Z,6.57
2023-03-30T15:40:39.443Z,14.27
2023-03-30T15:43:30.053Z,12.65
2023-03-30T15:46:04.470Z,18.52
2023-03-30T15:48:56.920Z,13.68
2023-03-30T15:51:37.928Z,8.77
2023-03-30T15:54:15.522Z,8.50
2023-03-30T15:57:08.455Z,8.88
2023-03-30T15:59:45.287Z,7.90
2023-03-30T16:02:17.643Z,8.18
2023-03-30T16:04:45.290Z,8.48
2023-03-30T16:07:21.762Z,8.00
2023-03-30T16:09:49.211Z,9.63
2023-03-30T16:12:21.183Z,10.63
2023-03-30T16:14:48.867Z,10.50
2023-03-30T16:17:15.998Z,9.25
2023-03-30T16:19:43.574Z,8.55
2023-03-30T16:22:12.450Z,11.52
2023-03-30T16:24:40.928Z,10.85
2023-03-30T16:27:10.422Z,9.43
2023-03-30T16:29:37.527Z,9.82
2023-03-30T16:32:05.066Z,10.40
2023-03-30T16:34:32.180Z,10.95
2023-03-30T16:36:59.172Z,10.10
2023-03-30T16:39:28.979Z,10.13
2023-03-30T16:41:56.517Z,10.05
2023-03-30T16:44:24.885Z,9.32
2023-03-30T16:46:52.616Z,10.25
2023-03-30T16:49:24.203Z,10.35
2023-03-30T16:51:54.419Z,10.43
2023-03-30T16:54:31.175Z,11.13
2023-03-30T16:57:01.474Z,11.05
2023-03-30T16:59:31.050Z,11.07
2023-03-30T17:01:59.225Z,11.23
2023-03-30T17:04:26.750Z,10.13
2023-03-30T17:06:54.619Z,10.88
2023-03-30T17:09:21.769Z,11.55
2023-03-30T17:11:49.420Z,10.98
2023-03-30T17:14:17.134Z,11.23
2023-03-30T17:16:44.129Z,12.82
2023-03-30T17:19:13.726Z,13.75
2023-03-30T17:21:43.432Z,15.73
2023-03-30T17:24:12.506Z,19.65
2023-03-30T17:26:40.096Z,19.10
2023-03-30T17:29:07.181Z,16.50
2023-03-30T17:31:34.222Z,15.93
2023-03-30T17:34:01.384Z,14.25
2023-03-30T17:36:29.007Z,14.73
2023-03-30T17:38:56.644Z,14.35
2023-03-30T17:41:23.977Z,15.85
2023-03-30T17:43:51.531Z,16.58
2023-03-30T17:46:20.214Z,18.65
2023-03-30T17:48:47.951Z,20.33
2023-03-30T17:51:14.891Z,19.00
2023-03-30T17:53:41.886Z,23.75
2023-03-30T17:56:13.133Z,21.73
2023-03-30T17:58:40.412Z,20.90
2023-03-30T18:01:09.398Z,19.52
2023-03-30T18:03:39.070Z,18.00
2023-03-30T18:06:07.166Z,15.85
2023-03-30T18:08:34.484Z,17.90
2023-03-30T18:11:01.900Z,17.92
2023-03-30T18:13:30.712Z,17.70
2023-03-30T18:16:00.060Z,17.85
2023-03-30T18:18:30.220Z,17.20
2023-03-30T18:21:03.760Z,17.25
2023-03-30T18:23:33.893Z,16.15
2023-03-30T18:26:01.898Z,16.60
2023-03-30T18:28:31.354Z,15.93
2023-03-30T18:31:00.635Z,17.25
2023-03-30T18:33:28.335Z,16.38
2023-03-30T18:35:59.559Z,13.68
2023-03-30T18:38:29.294Z,15.13
2023-03-30T18:40:58.092Z,16.13
2023-03-30T18:43:28.521Z,14.95
2023-03-30T18:46:02.902Z,14.30
2023-03-30T18:48:30.585Z,12.38
2023-03-30T18:50:58.095Z,13.68
2023-03-30T18:53:27.931Z,13.73
2023-03-30T18:55:58.546Z,14.65
2023-03-30T18:58:33.516Z,12.82
2023-03-30T19:01:01.299Z,14.93
2023-03-30T19:03:30.107Z,13.23
2023-03-30T19:05:57.297Z,14.20
2023-03-30T19:08:25.990Z,13.32
2023-03-30T19:10:57.088Z,18.30
2023-03-30T19:13:26.592Z,22.17
2023-03-30T19:15:54.601Z,14.43
2023-03-30T19:18:22.233Z,14.40
2023-03-30T19:20:51.523Z,13.68
2023-03-30T19:23:21.507Z,14.18
2023-03-30T19:25:48.958Z,15.95
2023-03-30T19:28:16.485Z,14.77
2023-03-30T19:30:43.979Z,14.43
2023-03-30T19:33:16.289Z,13.77
2023-03-30T19:35:44.898Z,13.48
2023-03-30T19:38:13.579Z,12.52
2023-03-30T19:40:41.371Z,13.23
2023-03-30T19:43:09.349Z,12.77
2023-03-30T19:45:36.548Z,12.50
2023-03-30T19:48:04.054Z,12.55
2023-03-30T19:50:31.682Z,12.85
2023-03-30T19:52:59.359Z,13.07
2023-03-30T19:55:27.093Z,14.88
2023-03-30T19:57:54.237Z,13.35
2023-03-30T20:00:22.643Z,12.98
2023-03-30T20:02:53.019Z,15.52
2023-03-30T20:05:22.737Z,13.45
2023-03-30T20:07:50.486Z,13.35
2023-03-30T20:10:24.592Z,12.40
2023-03-30T20:12:53.070Z,13.57
2023-03-30T20:15:22.636Z,13.50
2023-03-30T20:17:49.722Z,12.65
2023-03-30T20:20:22.651Z,12.95
2023-03-30T20:22:53.319Z,12.75
2023-03-30T20:25:22.010Z,12.35
2023-03-30T20:27:49.354Z,13.57
2023-03-30T20:30:16.984Z,15.30
2023-03-30T20:32:45.202Z,16.42
2023-03-30T20:35:16.342Z,14.65
2023-03-30T20:37:43.277Z,13.38
2023-03-30T20:40:12.017Z,12.13
2023-03-30T20:42:44.246Z,12.18
2023-03-30T20:45:13.849Z,12.60
2023-03-30T20:47:40.895Z,12.25
2023-03-30T20:50:08.350Z,11.25
2023-03-30T20:52:35.311Z,11.52
2023-03-30T20:55:02.364Z,11.80
2023-03-30T20:57:29.353Z,12.60
2023-03-30T20:59:56.310Z,12.82
2023-03-30T21:02:23.262Z,12.93
2023-03-30T21:04:50.427Z,13.82
2023-03-30T21:07:17.927Z,12.70
2023-03-30T21:09:45.878Z,13.23
2023-03-30T21:12:13.012Z,14.02
2023-03-30T21:14:39.994Z,12.32
2023-03-30T21:17:07.168Z,11.93
2023-03-30T21:19:34.156Z,11.27
2023-03-30T21:22:01.238Z,10.35
2023-03-30T21:24:29.026Z,9.07
2023-03-30T21:26:56.573Z,8.90
2023-03-30T21:29:23.688Z,8.05
2023-03-30T21:31:50.941Z,8.57
2023-03-30T21:34:18.807Z,7.70
2023-03-30T21:36:46.544Z,8.25
2023-03-30T21:39:13.905Z,6.90
2023-03-30T21:41:40.925Z,7.95
2023-03-30T21:44:08.154Z,7.32
2023-03-30T21:46:35.277Z,7.15
2023-03-30T21:49:02.436Z,7.38
2023-03-30T21:51:31.496Z,6.32
2023-03-30T21:53:59.165Z,6.82
2023-03-30T21:56:29.196Z,6.43
2023-03-30T21:58:57.413Z,6.55
2023-03-30T22:01:25.368Z,6.80
2023-03-30T22:03:53.917Z,6.07
2023-03-30T22:06:22.309Z,5.97
2023-03-30T22:08:50.659Z,6.95
2023-03-30T22:11:27.075Z,6.03
2023-03-30T22:13:55.234Z,6.43
2023-03-30T22:16:32.222Z,5.85
2023-03-30T22:18:59.392Z,6.15
2023-03-30T22:21:35.067Z,6.75
2023-03-30T22:24:04.570Z,6.78
2023-03-30T22:26:31.767Z,6.45
2023-03-30T22:28:58.889Z,6.65
2023-03-30T22:31:26.664Z,6.35
2023-03-30T22:33:54.943Z,6.53
2023-03-30T22:36:30.020Z,6.88
2023-03-30T22:38:59.269Z,6.78
2023-03-30T22:41:26.502Z,7.70
2023-03-30T22:43:56.190Z,8.00
2023-03-30T22:46:26.013Z,7.40
2023-03-30T22:48:55.442Z,8.18
2023-03-30T22:51:26.359Z,8.52
2023-03-30T22:53:59.308Z,7.70
2023-03-30T22:56:30.297Z,7.35
2023-03-30T22:58:59.826Z,8.13
2023-03-30T23:01:29.228Z,8.65
2023-03-30T23:03:59.443Z,8.30
2023-03-30T23:06:26.853Z,7.93
2023-03-30T23:08:54.529Z,7.88
2023-03-30T23:11:21.638Z,8.77
2023-03-30T23:13:49.591Z,8.63
2023-03-30T23:16:16.567Z,8.30
2023-03-30T23:18:43.577Z,8.40
2023-03-30T23:21:11.175Z,8.30
2023-03-30T23:23:38.793Z,7.70
2023-03-30T23:26:09.687Z,8.45
2023-03-30T23:28:39.702Z,8.57
2023-03-30T23:31:12.657Z,8.48
2023-03-30T23:33:41.479Z,8.07
2023-03-30T23:36:10.016Z,8.40
2023-03-30T23:38:37.681Z,8.60
2023-03-30T23:41:06.273Z,8.45
2023-03-30T23:43:33.447Z,8.25
2023-03-30T23:46:00.425Z,8.00
2023-03-30T23:48:27.469Z,8.48
2023-03-30T23:50:56.533Z,8.52
2023-03-30T23:53:25.064Z,7.80
2023-03-30T23:55:52.656Z,8.32
2023-03-30T23:58:19.952Z,7.82
